Glendale, Arizona
Current Conditions -  °F | °C
As of 5:53 AM on Wednesday 26 Nov 2014 (Local Time) from KDVT Reporting Station
Clear Clear  
Wind Chill: 43°   Ceiling: Unl
Heat Index: 47°   Visibility: 10mi
Dew Point:   Wind: 9mph
Humidity: 19%   Direction: 20°NNE
Pressure: 30.29"   Gusts: NA
Location:  33.54°N, 112.18°W
Report Text: KDVT 261253Z 02008KT 10SM CLR 08/M14 A3029 RMK AO2 SLP248 T00831144
Loading
Personal Weather Stations






























Interactive Weather Map New forecast layout! Learn more

10-Day Weather Forecast

Advertisements
Track Severe Weather on mobile